sensor_id;sensor_type;location;lat;lon;timestamp;pressure;altitude;pressure_sealevel;temperature;humidity
75418;BME280;63997;52.112;5.420;2023-03-03T00:01:42;102700.13;;;0.91;87.54
75418;BME280;63997;52.112;5.420;2023-03-03T00:04:09;102706.19;;;0.85;87.59
75418;BME280;63997;52.112;5.420;2023-03-03T00:06:35;102709.00;;;0.83;87.70
75418;BME280;63997;52.112;5.420;2023-03-03T00:09:01;102703.59;;;0.78;87.60
75418;BME280;63997;52.112;5.420;2023-03-03T00:11:28;102698.97;;;0.80;87.96
75418;BME280;63997;52.112;5.420;2023-03-03T00:13:55;102701.38;;;0.82;87.95
75418;BME280;63997;52.112;5.420;2023-03-03T00:16:34;102703.41;;;0.79;87.96
75418;BME280;63997;52.112;5.420;2023-03-03T00:19:02;102701.38;;;0.82;88.65
75418;BME280;63997;52.112;5.420;2023-03-03T00:21:39;102705.38;;;0.84;88.47
75418;BME280;63997;52.112;5.420;2023-03-03T00:26:44;102704.97;;;0.87;89.03
75418;BME280;63997;52.112;5.420;2023-03-03T00:29:33;102707.56;;;0.94;89.15
75418;BME280;63997;52.112;5.420;2023-03-03T00:32:30;102709.16;;;1.01;89.14
75418;BME280;63997;52.112;5.420;2023-03-03T00:35:22;102718.19;;;1.05;89.35
75418;BME280;63997;52.112;5.420;2023-03-03T00:37:57;102726.44;;;1.09;89.25
75418;BME280;63997;52.112;5.420;2023-03-03T00:40:26;102720.19;;;1.10;89.22
75418;BME280;63997;52.112;5.420;2023-03-03T00:42:57;102723.38;;;1.12;89.35
75418;BME280;63997;52.112;5.420;2023-03-03T00:53:48;102724.22;;;1.13;89.15
75418;BME280;63997;52.112;5.420;2023-03-03T00:56:15;102722.97;;;1.15;89.09
75418;BME280;63997;52.112;5.420;2023-03-03T00:58:41;102733.47;;;1.15;89.05
75418;BME280;63997;52.112;5.420;2023-03-03T01:01:10;102735.06;;;1.16;89.04
75418;BME280;63997;52.112;5.420;2023-03-03T01:03:37;102732.03;;;1.19;89.10
75418;BME280;63997;52.112;5.420;2023-03-03T01:06:03;102724.19;;;1.19;89.05
75418;BME280;63997;52.112;5.420;2023-03-03T01:08:30;102727.81;;;1.18;88.83
75418;BME280;63997;52.112;5.420;2023-03-03T01:10:59;102734.25;;;1.16;89.06
75418;BME280;63997;52.112;5.420;2023-03-03T01:13:31;102728.22;;;1.15;88.80
75418;BME280;63997;52.112;5.420;2023-03-03T01:15:59;102733.47;;;1.15;88.70
75418;BME280;63997;52.112;5.420;2023-03-03T01:18:26;102735.06;;;1.16;88.76
75418;BME280;63997;52.112;5.420;2023-03-03T01:20:53;102733.25;;;1.17;88.89
75418;BME280;63997;52.112;5.420;2023-03-03T01:23:20;102725.59;;;1.15;89.08
75418;BME280;63997;52.112;5.420;2023-03-03T01:25:47;102731.88;;;1.14;88.89
75418;BME280;63997;52.112;5.420;2023-03-03T01:28:13;102733.47;;;1.15;89.19
75418;BME280;63997;52.112;5.420;2023-03-03T01:30:39;102728.22;;;1.15;88.89
75418;BME280;63997;52.112;5.420;2023-03-03T01:33:06;102726.19;;;1.17;89.01
75418;BME280;63997;52.112;5.420;2023-03-03T01:35:32;102734.25;;;1.16;88.92
75418;BME280;63997;52.112;5.420;2023-03-03T01:38:01;102731.88;;;1.14;88.95
75418;BME280;63997;52.112;5.420;2023-03-03T01:40:29;102729.81;;;1.16;89.13
75418;BME280;63997;52.112;5.420;2023-03-03T01:42:58;102731.25;;;1.12;89.09
75418;BME280;63997;52.112;5.420;2023-03-03T01:45:27;102737.09;;;1.14;89.05
75418;BME280;63997;52.112;5.420;2023-03-03T01:47:59;102732.44;;;1.16;89.14
75418;BME280;63997;52.112;5.420;2023-03-03T01:50:35;102734.47;;;1.14;89.15
75418;BME280;63997;52.112;5.420;2023-03-03T01:53:05;102727.41;;;1.15;89.07
75418;BME280;63997;52.112;5.420;2023-03-03T01:55:38;102733.47;;;1.15;88.68
75418;BME280;63997;52.112;5.420;2023-03-03T01:58:17;102734.69;;;1.13;89.08
75418;BME280;63997;52.112;5.420;2023-03-03T02:00:49;102731.47;;;1.11;88.97
75418;BME280;63997;52.112;5.420;2023-03-03T02:03:18;102737.72;;;1.10;88.73
75418;BME280;63997;52.112;5.420;2023-03-03T02:05:46;102738.31;;;1.12;88.68
75418;BME280;63997;52.112;5.420;2023-03-03T02:08:15;102735.50;;;1.13;88.81
75418;BME280;63997;52.112;5.420;2023-03-03T02:10:44;102737.91;;;1.15;88.78
75418;BME280;63997;52.112;5.420;2023-03-03T02:13:11;102731.44;;;1.17;88.91
75418;BME280;63997;52.112;5.420;2023-03-03T02:15:39;102735.06;;;1.16;88.71
75418;BME280;63997;52.112;5.420;2023-03-03T02:18:11;102727.22;;;1.16;88.66
75418;BME280;63997;52.112;5.420;2023-03-03T02:26:09;102734.03;;;1.17;88.61
75418;BME280;63997;52.112;5.420;2023-03-03T02:28:38;102726.81;;;1.19;88.80
75418;BME280;63997;52.112;5.420;2023-03-03T02:31:07;102735.69;;;1.18;88.48
75418;BME280;63997;52.112;5.420;2023-03-03T02:33:43;102738.31;;;1.18;88.67
75418;BME280;63997;52.112;5.420;2023-03-03T02:36:14;102732.88;;;1.13;88.76
75418;BME280;63997;52.112;5.420;2023-03-03T02:39:00;102733.88;;;1.12;88.68
75418;BME280;63997;52.112;5.420;2023-03-03T02:44:05;102735.50;;;1.13;88.44
75418;BME280;63997;52.112;5.420;2023-03-03T02:46:38;102731.25;;;1.12;88.48
75418;BME280;63997;52.112;5.420;2023-03-03T02:49:06;102734.69;;;1.13;88.34
75418;BME280;63997;52.112;5.420;2023-03-03T02:51:33;102735.09;;;1.10;88.30
75418;BME280;63997;52.112;5.420;2023-03-03T02:54:00;102737.13;;;1.01;87.96
75418;BME280;63997;52.112;5.420;2023-03-03T02:56:27;102733.75;;;0.94;88.08
75418;BME280;63997;52.112;5.420;2023-03-03T02:58:54;102730.53;;;0.92;88.13
75418;BME280;63997;52.112;5.420;2023-03-03T03:01:20;102740.00;;;0.93;88.05
75418;BME280;63997;52.112;5.420;2023-03-03T03:03:47;102737.16;;;0.94;88.40
75418;BME280;63997;52.112;5.420;2023-03-03T03:06:14;102736.19;;;0.89;88.17
75418;BME280;63997;52.112;5.420;2023-03-03T03:08:40;102743.03;;;0.90;88.41
75418;BME280;63997;52.112;5.420;2023-03-03T03:11:06;102745.47;;;0.85;88.14
75418;BME280;63997;52.112;5.420;2023-03-03T03:13:33;102746.47;;;0.84;88.43
75418;BME280;63997;52.112;5.420;2023-03-03T03:16:00;102744.88;;;0.83;88.70
75418;BME280;63997;52.112;5.420;2023-03-03T03:18:27;102745.28;;;0.86;88.71
75418;BME280;63997;52.112;5.420;2023-03-03T03:20:53;102740.03;;;0.86;88.75
75418;BME280;63997;52.112;5.420;2023-03-03T03:23:20;102732.38;;;0.85;88.69
75418;BME280;63997;52.112;5.420;2023-03-03T03:25:49;102737.19;;;0.88;88.60
75418;BME280;63997;52.112;5.420;2023-03-03T03:28:16;102734.19;;;0.91;88.87
75418;BME280;63997;52.112;5.420;2023-03-03T03:30:43;102735.78;;;0.92;88.96
75418;BME280;63997;52.112;5.420;2023-03-03T03:33:11;102742.22;;;0.96;89.02
75418;BME280;63997;52.112;5.420;2023-03-03T03:35:37;102743.22;;;0.95;88.74
75418;BME280;63997;52.112;5.420;2023-03-03T03:38:05;102739.78;;;0.94;88.65
75418;BME280;63997;52.112;5.420;2023-03-03T03:40:32;102741.59;;;0.94;88.97
75418;BME280;63997;52.112;5.420;2023-03-03T03:42:58;102740.00;;;0.93;88.80
75418;BME280;63997;52.112;5.420;2023-03-03T03:45:24;102750.88;;;0.90;88.78
75418;BME280;63997;52.112;5.420;2023-03-03T03:47:51;102742.03;;;0.91;88.90
75418;BME280;63997;52.112;5.420;2023-03-03T03:50:17;102745.81;;;0.95;89.32
75418;BME280;63997;52.112;5.420;2023-03-03T03:52:44;102744.41;;;0.99;88.99
75418;BME280;63997;52.112;5.420;2023-03-03T03:55:10;102754.88;;;0.99;88.97
75418;BME280;63997;52.112;5.420;2023-03-03T03:57:36;102752.06;;;1.00;89.20
75418;BME280;63997;52.112;5.420;2023-03-03T04:00:04;102751.66;;;1.03;88.96
75418;BME280;63997;52.112;5.420;2023-03-03T04:02:31;102758.72;;;1.03;89.00
75418;BME280;63997;52.112;5.420;2023-03-03T04:04:57;102754.84;;;1.05;89.00
75418;BME280;63997;52.112;5.420;2023-03-03T04:07:23;102755.66;;;1.06;89.00
75418;BME280;63997;52.112;5.420;2023-03-03T04:09:50;102757.28;;;1.07;89.15
75418;BME280;63997;52.112;5.420;2023-03-03T04:12:17;102757.28;;;1.07;89.06
75418;BME280;63997;52.112;5.420;2023-03-03T04:14:43;102758.91;;;1.08;88.87
75418;BME280;63997;52.112;5.420;2023-03-03T04:17:15;102757.06;;;1.09;89.11
75418;BME280;63997;52.112;5.420;2023-03-03T04:19:42;102753.66;;;1.08;89.11
75418;BME280;63997;52.112;5.420;2023-03-03T04:22:09;102751.63;;;1.10;89.06
75418;BME280;63997;52.112;5.420;2023-03-03T04:24:35;102751.22;;;1.13;88.94
75418;BME280;63997;52.112;5.420;2023-03-03T04:27:01;102757.44;;;1.12;88.96
75418;BME280;63997;52.112;5.420;2023-03-03T04:29:28;102757.66;;;1.11;89.12
75418;BME280;63997;52.112;5.420;2023-03-03T04:31:54;102757.06;;;1.09;89.01
75418;BME280;63997;52.112;5.420;2023-03-03T04:34:21;102760.50;;;1.09;89.35
75418;BME280;63997;52.112;5.420;2023-03-03T04:36:48;102754.25;;;1.10;89.14
75418;BME280;63997;52.112;5.420;2023-03-03T04:39:14;102749.81;;;1.11;89.37
75418;BME280;63997;52.112;5.420;2023-03-03T04:41:41;102754.81;;;1.12;89.03
75418;BME280;63997;52.112;5.420;2023-03-03T04:44:07;102760.06;;;1.12;89.22
75418;BME280;63997;52.112;5.420;2023-03-03T04:46:33;102757.25;;;1.14;89.12
75418;BME280;63997;52.112;5.420;2023-03-03T04:49:00;102756.81;;;1.17;88.98
75418;BME280;63997;52.112;5.420;2023-03-03T04:51:26;102762.28;;;1.15;89.22
75418;BME280;63997;52.112;5.420;2023-03-03T04:53:52;102762.06;;;1.17;89.35
75418;BME280;63997;52.112;5.420;2023-03-03T04:56:19;102763.47;;;1.19;89.12
75418;BME280;63997;52.112;5.420;2023-03-03T04:58:45;102761.44;;;1.21;89.24
75418;BME280;63997;52.112;5.420;2023-03-03T05:01:12;102755.41;;;1.21;89.20
75418;BME280;63997;52.112;5.420;2023-03-03T05:03:39;102766.91;;;1.20;89.11
75418;BME280;63997;52.112;5.420;2023-03-03T05:06:06;102764.50;;;1.18;89.38
75418;BME280;63997;52.112;5.420;2023-03-03T05:08:32;102753.19;;;1.18;89.63
75418;BME280;63997;52.112;5.420;2023-03-03T05:10:59;102753.81;;;1.20;89.49
75418;BME280;63997;52.112;5.420;2023-03-03T05:13:26;102750.16;;;1.21;89.59
75418;BME280;63997;52.112;5.420;2023-03-03T05:15:54;102751.19;;;1.20;89.66
75418;BME280;63997;52.112;5.420;2023-03-03T05:18:22;102757.22;;;1.20;89.83
75418;BME280;63997;52.112;5.420;2023-03-03T05:20:50;102762.06;;;1.17;89.70
75418;BME280;63997;52.112;5.420;2023-03-03T05:23:18;102750.19;;;1.14;89.90
75418;BME280;63997;52.112;5.420;2023-03-03T05:25:47;102758.06;;;1.14;90.05
75418;BME280;63997;52.112;5.420;2023-03-03T05:28:13;102755.22;;;1.16;90.04
75418;BME280;63997;52.112;5.420;2023-03-03T05:30:40;102756.44;;;1.20;90.21
75418;BME280;63997;52.112;5.420;2023-03-03T05:33:06;102753.81;;;1.20;90.32
75418;BME280;63997;52.112;5.420;2023-03-03T05:35:33;102762.03;;;1.23;90.45
75418;BME280;63997;52.112;5.420;2023-03-03T05:38:00;102758.44;;;1.24;90.56
75418;BME280;63997;52.112;5.420;2023-03-03T05:40:29;102756.59;;;1.25;90.41
75418;BME280;63997;52.112;5.420;2023-03-03T05:42:55;102756.97;;;1.28;90.67
75418;BME280;63997;52.112;5.420;2023-03-03T05:45:21;102760.41;;;1.29;90.63
75418;BME280;63997;52.112;5.420;2023-03-03T05:47:50;102760.03;;;1.25;90.58
75418;BME280;63997;52.112;5.420;2023-03-03T05:50:17;102762.03;;;1.30;90.74
75418;BME280;63997;52.112;5.420;2023-03-03T05:52:47;102760.22;;;1.30;90.79
75418;BME280;63997;52.112;5.420;2023-03-03T05:55:14;102771.28;;;1.32;90.63
75418;BME280;63997;52.112;5.420;2023-03-03T05:57:41;102766.03;;;1.32;90.73
75418;BME280;63997;52.112;5.420;2023-03-03T06:00:07;102762.41;;;1.33;90.79
75418;BME280;63997;52.112;5.420;2023-03-03T06:02:34;102761.81;;;1.31;90.85
75418;BME280;63997;52.112;5.420;2023-03-03T06:05:01;102764.22;;;1.33;91.01
75418;BME280;63997;52.112;5.420;2023-03-03T06:07:27;102767.44;;;1.35;91.11
75418;BME280;63997;52.112;5.420;2023-03-03T06:09:53;102763.59;;;1.38;91.04
75418;BME280;63997;52.112;5.420;2023-03-03T06:12:20;102770.44;;;1.39;91.07
75418;BME280;63997;52.112;5.420;2023-03-03T06:14:47;102772.84;;;1.40;91.05
75418;BME280;63997;52.112;5.420;2023-03-03T06:17:13;102773.66;;;1.41;91.20
75418;BME280;63997;52.112;5.420;2023-03-03T06:19:40;102773.66;;;1.41;91.31
75418;BME280;63997;52.112;5.420;2023-03-03T06:22:07;102783.31;;;1.40;91.41
75418;BME280;63997;52.112;5.420;2023-03-03T06:24:34;102784.16;;;1.41;91.29
75418;BME280;63997;52.112;5.420;2023-03-03T06:27:00;102771.63;;;1.43;91.31
75418;BME280;63997;52.112;5.420;2023-03-03T06:29:27;102776.09;;;1.42;91.49
75418;BME280;63997;52.112;5.420;2023-03-03T06:31:54;102782.72;;;1.45;91.54
75418;BME280;63997;52.112;5.420;2023-03-03T06:34:20;102779.69;;;1.48;91.57
75418;BME280;63997;52.112;5.420;2023-03-03T06:36:47;102775.47;;;1.47;91.55
75418;BME280;63997;52.112;5.420;2023-03-03T06:39:14;102786.13;;;1.45;91.55
75418;BME280;63997;52.112;5.420;2023-03-03T06:41:41;102791.19;;;1.47;91.70
75418;BME280;63997;52.112;5.420;2023-03-03T06:44:07;102788.13;;;1.50;91.61
75418;BME280;63997;52.112;5.420;2023-03-03T06:46:33;102793.16;;;1.51;91.84
75418;BME280;63997;52.112;5.420;2023-03-03T06:49:00;102800.03;;;1.52;91.86
75418;BME280;63997;52.112;5.420;2023-03-03T06:51:34;102801.84;;;1.52;91.82
75418;BME280;63997;52.112;5.420;2023-03-03T06:54:09;102795.59;;;1.53;91.74
75418;BME280;63997;52.112;5.420;2023-03-03T06:56:36;102802.63;;;1.59;92.03
75418;BME280;63997;52.112;5.420;2023-03-03T06:59:12;102810.03;;;1.62;91.98
75418;BME280;63997;52.112;5.420;2023-03-03T07:01:39;102815.91;;;1.64;91.90
75418;BME280;63997;52.112;5.420;2023-03-03T07:04:20;102811.81;;;1.68;91.81
75418;BME280;63997;52.112;5.420;2023-03-03T07:06:48;102807.78;;;1.72;91.88
75418;BME280;63997;52.112;5.420;2023-03-03T07:09:21;102814.44;;;1.75;91.79
75418;BME280;63997;52.112;5.420;2023-03-03T07:11:47;102815.00;;;1.77;92.07
75418;BME280;63997;52.112;5.420;2023-03-03T07:14:17;102826.31;;;1.77;91.90
75418;BME280;63997;52.112;5.420;2023-03-03T07:16:44;102825.69;;;1.82;92.08
75418;BME280;63997;52.112;5.420;2023-03-03T07:19:20;102829.91;;;1.83;92.04
75418;BME280;63997;52.112;5.420;2023-03-03T07:21:49;102840.97;;;1.85;91.84
75418;BME280;63997;52.112;5.420;2023-03-03T07:24:28;102840.00;;;1.86;91.97
75418;BME280;63997;52.112;5.420;2023-03-03T07:27:05;102842.19;;;1.89;91.96
75418;BME280;63997;52.112;5.420;2023-03-03T07:29:33;102840.34;;;1.90;91.92
75418;BME280;63997;52.112;5.420;2023-03-03T07:32:00;102840.78;;;1.87;91.98
75418;BME280;63997;52.112;5.420;2023-03-03T07:34:43;102838.34;;;1.92;92.03
75418;BME280;63997;52.112;5.420;2023-03-03T07:37:30;102838.53;;;1.97;91.89
75418;BME280;63997;52.112;5.420;2023-03-03T07:40:00;102845.16;;;1.99;91.75
75418;BME280;63997;52.112;5.420;2023-03-03T07:42:39;102848.97;;;2.03;92.06
75418;BME280;63997;52.112;5.420;2023-03-03T07:45:26;102848.34;;;2.08;91.88
75418;BME280;63997;52.112;5.420;2023-03-03T07:48:07;102853.72;;;2.13;92.14
75418;BME280;63997;52.112;5.420;2023-03-03T07:50:41;102859.16;;;2.18;92.01
75418;BME280;63997;52.112;5.420;2023-03-03T07:53:14;102859.16;;;2.18;91.70
75418;BME280;63997;52.112;5.420;2023-03-03T07:55:46;102864.78;;;2.22;91.52
75418;BME280;63997;52.112;5.420;2023-03-03T08:01:26;102858.69;;;2.28;91.64
75418;BME280;63997;52.112;5.420;2023-03-03T08:03:28;102863.06;;;2.34;91.53
75418;BME280;63997;52.112;5.420;2023-03-03T08:05:56;102865.88;;;2.39;91.27
75418;BME280;63997;52.112;5.420;2023-03-03T08:08:36;102864.44;;;2.43;91.64
75418;BME280;63997;52.112;5.420;2023-03-03T08:11:03;102869.06;;;2.48;91.31
75418;BME280;63997;52.112;5.420;2023-03-03T08:16:20;102877.91;;;2.53;91.03
75418;BME280;63997;52.112;5.420;2023-03-03T08:18:51;102882.13;;;2.54;91.11
75418;BME280;63997;52.112;5.420;2023-03-03T08:21:20;102883.31;;;2.58;91.04
75418;BME280;63997;52.112;5.420;2023-03-03T08:23:47;102891.53;;;2.62;91.04
75418;BME280;63997;52.112;5.420;2023-03-03T08:26:18;102892.16;;;2.64;90.71
75418;BME280;63997;52.112;5.420;2023-03-03T08:28:45;102887.88;;;2.70;90.54
75418;BME280;63997;52.112;5.420;2023-03-03T08:31:12;102894.09;;;2.75;90.62
75418;BME280;63997;52.112;5.420;2023-03-03T08:33:50;102891.00;;;2.78;90.54
75418;BME280;63997;52.112;5.420;2023-03-03T08:36:17;102887.28;;;2.86;90.61
75418;BME280;63997;52.112;5.420;2023-03-03T08:38:44;102891.47;;;2.94;90.48
75418;BME280;63997;52.112;5.420;2023-03-03T08:41:10;102892.44;;;2.99;90.48
75418;BME280;63997;52.112;5.420;2023-03-03T08:43:37;102897.41;;;3.07;90.42
75418;BME280;63997;52.112;5.420;2023-03-03T08:46:04;102895.72;;;3.13;90.28
75418;BME280;63997;52.112;5.420;2023-03-03T08:48:32;102892.44;;;3.17;90.12
75418;BME280;63997;52.112;5.420;2023-03-03T08:50:59;102884.56;;;3.17;89.68
75418;BME280;63997;52.112;5.420;2023-03-03T08:53:26;102896.84;;;3.24;89.65
75418;BME280;63997;52.112;5.420;2023-03-03T08:55:53;102897.22;;;3.27;89.49
75418;BME280;63997;52.112;5.420;2023-03-03T08:58:20;102890.50;;;3.31;89.16
75418;BME280;63997;52.112;5.420;2023-03-03T09:00:59;102894.19;;;3.42;89.41
75418;BME280;63997;52.112;5.420;2023-03-03T09:03:26;102890.63;;;3.55;89.18
75418;BME280;63997;52.112;5.420;2023-03-03T09:05:52;102886.09;;;3.62;88.82
75418;BME280;63997;52.112;5.420;2023-03-03T09:08:19;102898.91;;;3.70;88.74
75418;BME280;63997;52.112;5.420;2023-03-03T09:10:45;102888.34;;;3.77;88.34
75418;BME280;63997;52.112;5.420;2023-03-03T09:13:17;102894.31;;;3.84;88.04
75418;BME280;63997;52.112;5.420;2023-03-03T09:15:47;102890.25;;;4.00;87.85
75418;BME280;63997;52.112;5.420;2023-03-03T09:18:31;102889.13;;;4.07;87.19
75418;BME280;63997;52.112;5.420;2023-03-03T09:21:00;102891.78;;;4.19;87.14
75418;BME280;63997;52.112;5.420;2023-03-03T09:23:30;102893.38;;;4.20;86.37
75418;BME280;63997;52.112;5.420;2023-03-03T09:28:34;102893.91;;;4.40;86.23
75418;BME280;63997;52.112;5.420;2023-03-03T09:31:02;102891.63;;;4.44;85.73
75418;BME280;63997;52.112;5.420;2023-03-03T09:33:44;102890.94;;;4.48;85.40
75418;BME280;63997;52.112;5.420;2023-03-03T09:36:25;102888.53;;;4.59;85.26
75418;BME280;63997;52.112;5.420;2023-03-03T09:38:52;102890.97;;;4.60;84.91
75418;BME280;63997;52.112;5.420;2023-03-03T09:41:44;102898.28;;;4.70;84.53
75418;BME280;63997;52.112;5.420;2023-03-03T09:47:06;102903.44;;;4.65;83.61
75418;BME280;63997;52.112;5.420;2023-03-03T09:50:10;102907.78;;;4.59;83.40
75418;BME280;63997;52.112;5.420;2023-03-03T09:55:37;102905.06;;;4.77;82.78
75418;BME280;63997;52.112;5.420;2023-03-03T10:01:23;102894.06;;;4.81;82.83
75418;BME280;63997;52.112;5.420;2023-03-03T10:04:10;102896.56;;;4.87;82.11
75418;BME280;63997;52.112;5.420;2023-03-03T10:10:01;102900.03;;;5.11;82.17
75418;BME280;63997;52.112;5.420;2023-03-03T10:19:09;102888.06;;;5.61;80.81
75418;BME280;63997;52.112;5.420;2023-03-03T10:30:06;102889.25;;;5.93;78.49
75418;BME280;63997;52.112;5.420;2023-03-03T10:32:41;102895.84;;;5.79;78.20
75418;BME280;63997;52.112;5.420;2023-03-03T10:37:56;102892.16;;;5.80;78.24
75418;BME280;63997;52.112;5.420;2023-03-03T10:47:08;102892.19;;;6.42;77.64
75418;BME280;63997;52.112;5.420;2023-03-03T10:52:18;102894.00;;;6.92;76.38
75418;BME280;63997;52.112;5.420;2023-03-03T10:58:16;102898.03;;;7.16;74.47
75418;BME280;63997;52.112;5.420;2023-03-03T11:00:55;102889.75;;;7.30;74.08
75418;BME280;63997;52.112;5.420;2023-03-03T11:08:52;102882.69;;;7.62;71.80
75418;BME280;63997;52.112;5.420;2023-03-03T11:14:22;102884.19;;;8.07;71.45
75418;BME280;63997;52.112;5.420;2023-03-03T11:17:27;102874.75;;;8.16;70.42
75418;BME280;63997;52.112;5.420;2023-03-03T11:20:07;102869.66;;;8.37;69.80
75418;BME280;63997;52.112;5.420;2023-03-03T11:33:34;102865.91;;;8.70;66.70
75418;BME280;63997;52.112;5.420;2023-03-03T11:38:55;102859.75;;;8.59;64.79
75418;BME280;63997;52.112;5.420;2023-03-03T11:41:34;102862.81;;;8.46;65.62
75418;BME280;63997;52.112;5.420;2023-03-03T11:44:08;102866.47;;;8.77;65.26
75418;BME280;63997;52.112;5.420;2023-03-03T11:46:43;102860.44;;;8.87;64.41
75418;BME280;63997;52.112;5.420;2023-03-03T11:49:20;102856.31;;;9.16;65.06
75418;BME280;63997;52.112;5.420;2023-03-03T11:51:55;102855.59;;;9.41;63.05
75418;BME280;63997;52.112;5.420;2023-03-03T11:57:38;102849.50;;;9.41;63.20
75418;BME280;63997;52.112;5.420;2023-03-03T12:00:30;102852.31;;;9.04;63.06
75418;BME280;63997;52.112;5.420;2023-03-03T12:03:24;102855.69;;;8.94;63.21
75418;BME280;63997;52.112;5.420;2023-03-03T12:06:07;102850.25;;;8.73;63.51
75418;BME280;63997;52.112;5.420;2023-03-03T12:11:46;102845.63;;;9.01;63.52
75418;BME280;63997;52.112;5.420;2023-03-03T12:14:23;102835.59;;;9.13;62.46
75418;BME280;63997;52.112;5.420;2023-03-03T12:17:11;102834.47;;;8.94;60.97
75418;BME280;63997;52.112;5.420;2023-03-03T12:19:51;102836.56;;;8.87;62.12
75418;BME280;63997;52.112;5.420;2023-03-03T12:22:31;102838.28;;;9.23;61.36
75418;BME280;63997;52.112;5.420;2023-03-03T12:27:44;102828.28;;;9.51;60.71
75418;BME280;63997;52.112;5.420;2023-03-03T12:35:50;102811.84;;;9.85;58.32
75418;BME280;63997;52.112;5.420;2023-03-03T12:41:16;102814.53;;;10.10;58.03
75418;BME280;63997;52.112;5.420;2023-03-03T12:46:34;102817.59;;;9.20;58.32
75418;BME280;63997;52.112;5.420;2023-03-03T12:49:05;102824.13;;;9.02;59.22
75418;BME280;63997;52.112;5.420;2023-03-03T12:51:56;102813.88;;;9.21;57.58
75418;BME280;63997;52.112;5.420;2023-03-03T12:54:43;102807.28;;;9.44;58.09
75418;BME280;63997;52.112;5.420;2023-03-03T12:57:26;102805.22;;;9.67;57.61
75418;BME280;63997;52.112;5.420;2023-03-03T13:00:18;102801.25;;;10.05;56.62
75418;BME280;63997;52.112;5.420;2023-03-03T13:05:34;102795.66;;;9.96;56.72
75418;BME280;63997;52.112;5.420;2023-03-03T13:08:28;102803.34;;;9.77;57.34
75418;BME280;63997;52.112;5.420;2023-03-03T13:11:44;102809.16;;;9.49;59.43
75418;BME280;63997;52.112;5.420;2023-03-03T13:14:31;102805.66;;;9.28;60.70
75418;BME280;63997;52.112;5.420;2023-03-03T13:17:16;102803.75;;;9.18;61.13
75418;BME280;63997;52.112;5.420;2023-03-03T13:20:00;102815.06;;;8.88;61.86
75418;BME280;63997;52.112;5.420;2023-03-03T13:22:37;102811.06;;;8.86;61.61
75418;BME280;63997;52.112;5.420;2023-03-03T13:25:15;102810.44;;;8.68;62.18
75418;BME280;63997;52.112;5.420;2023-03-03T13:27:49;102805.88;;;8.54;62.11
75418;BME280;63997;52.112;5.420;2023-03-03T13:30:26;102806.66;;;8.54;62.44
75418;BME280;63997;52.112;5.420;2023-03-03T13:32:58;102796.81;;;8.50;61.33
75418;BME280;63997;52.112;5.420;2023-03-03T13:38:11;102803.66;;;8.40;60.58
75418;BME280;63997;52.112;5.420;2023-03-03T13:40:44;102807.69;;;8.48;60.83
75418;BME280;63997;52.112;5.420;2023-03-03T13:43:17;102803.41;;;8.42;60.45
75418;BME280;63997;52.112;5.420;2023-03-03T13:48:50;102806.75;;;8.32;61.79
75418;BME280;63997;52.112;5.420;2023-03-03T14:00:23;102805.22;;;8.04;64.01
75418;BME280;63997;52.112;5.420;2023-03-03T14:03:10;102799.41;;;8.07;64.41
75418;BME280;63997;52.112;5.420;2023-03-03T14:05:45;102797.81;;;8.06;64.02
75418;BME280;63997;52.112;5.420;2023-03-03T14:08:25;102801.00;;;8.03;64.55
75418;BME280;63997;52.112;5.420;2023-03-03T14:11:50;102802.31;;;8.06;64.97
75418;BME280;63997;52.112;5.420;2023-03-03T14:14:10;102794.34;;;8.01;64.14
75418;BME280;63997;52.112;5.420;2023-03-03T14:16:57;102791.84;;;7.89;63.21
75418;BME280;63997;52.112;5.420;2023-03-03T14:19:43;102793.63;;;7.78;63.93
75418;BME280;63997;52.112;5.420;2023-03-03T14:22:50;102790.38;;;7.71;63.90
75418;BME280;63997;52.112;5.420;2023-03-03T14:25:18;102787.47;;;7.73;64.05
75418;BME280;63997;52.112;5.420;2023-03-03T14:30:29;102779.00;;;7.71;63.25
75418;BME280;63997;52.112;5.420;2023-03-03T14:35:41;102781.59;;;7.65;62.51
75418;BME280;63997;52.112;5.420;2023-03-03T14:40:35;102775.19;;;7.61;62.81
75418;BME280;63997;52.112;5.420;2023-03-03T14:45:53;102781.00;;;7.58;62.23
75418;BME280;63997;52.112;5.420;2023-03-03T14:48:22;102770.94;;;7.60;62.68
75418;BME280;63997;52.112;5.420;2023-03-03T14:50:51;102779.75;;;7.66;62.28
75418;BME280;63997;52.112;5.420;2023-03-03T14:53:22;102777.63;;;7.68;61.73
75418;BME280;63997;52.112;5.420;2023-03-03T14:56:14;102772.09;;;7.69;61.51
75418;BME280;63997;52.112;5.420;2023-03-03T14:58:41;102775.28;;;7.72;60.67
75418;BME280;63997;52.112;5.420;2023-03-03T15:01:37;102772.16;;;7.75;60.60
75418;BME280;63997;52.112;5.420;2023-03-03T15:06:47;102771.09;;;7.76;61.39
75418;BME280;63997;52.112;5.420;2023-03-03T15:09:30;102767.66;;;7.75;61.63
75418;BME280;63997;52.112;5.420;2023-03-03T15:12:21;102768.41;;;7.71;61.98
75418;BME280;63997;52.112;5.420;2023-03-03T15:15:18;102761.16;;;7.61;62.75
75418;BME280;63997;52.112;5.420;2023-03-03T15:17:56;102762.41;;;7.53;62.66
75418;BME280;63997;52.112;5.420;2023-03-03T15:20:41;102767.09;;;7.46;62.77
75418;BME280;63997;52.112;5.420;2023-03-03T15:26:10;102759.63;;;7.38;63.19
75418;BME280;63997;52.112;5.420;2023-03-03T15:31:41;102753.31;;;7.44;64.16
75418;BME280;63997;52.112;5.420;2023-03-03T15:37:23;102751.09;;;7.31;63.39
75418;BME280;63997;52.112;5.420;2023-03-03T15:43:02;102749.38;;;7.20;64.32
75418;BME280;63997;52.112;5.420;2023-03-03T15:45:44;102754.66;;;7.20;63.79
75418;BME280;63997;52.112;5.420;2023-03-03T15:51:43;102742.13;;;7.10;63.87
75418;BME280;63997;52.112;5.420;2023-03-03T16:02:54;102738.56;;;6.77;62.97
75418;BME280;63997;52.112;5.420;2023-03-03T16:05:32;102738.28;;;6.74;63.90
75418;BME280;63997;52.112;5.420;2023-03-03T16:08:15;102743.06;;;6.77;63.46
75418;BME280;63997;52.112;5.420;2023-03-03T16:11:18;102748.84;;;6.74;63.65
75418;BME280;63997;52.112;5.420;2023-03-03T16:14:03;102746.44;;;6.72;62.77